createdAt,value
2019-04-13T00:02:16.220Z,8.37
2019-04-13T00:05:04.512Z,8.50
2019-04-13T00:07:33.837Z,8.50
2019-04-13T00:10:03.092Z,8.17
2019-04-13T00:12:33.291Z,9.37
2019-04-13T00:15:02.547Z,9.03
2019-04-13T00:17:31.780Z,9.10
2019-04-13T00:20:01.076Z,9.07
2019-04-13T00:22:30.670Z,9.30
2019-04-13T00:24:59.919Z,8.73
2019-04-13T00:27:29.380Z,8.80
2019-04-13T00:29:58.564Z,8.77
2019-04-13T00:32:27.806Z,9.17
2019-04-13T00:34:57.038Z,9.77
2019-04-13T00:37:26.226Z,8.90
2019-04-13T00:39:55.493Z,9.50
2019-04-13T00:42:24.799Z,9.43
2019-04-13T00:44:54.147Z,9.40
2019-04-13T00:47:23.428Z,10.07
2019-04-13T00:49:52.600Z,9.50
2019-04-13T00:52:22.317Z,9.20
2019-04-13T00:54:52.330Z,9.47
2019-04-13T00:57:21.539Z,9.93
2019-04-13T00:59:50.713Z,9.37
2019-04-13T01:02:20.039Z,9.40
2019-04-13T01:04:53.776Z,9.50
2019-04-13T01:07:20.246Z,10.00
2019-04-13T01:09:49.891Z,10.10
2019-04-13T01:12:19.893Z,10.33
2019-04-13T01:14:49.203Z,10.30
2019-04-13T01:17:18.531Z,10.03
2019-04-13T01:19:47.710Z,10.80
2019-04-13T01:22:16.979Z,9.47
2019-04-13T01:24:46.314Z,10.03
2019-04-13T01:27:15.505Z,9.17
2019-04-13T01:29:44.834Z,9.70
2019-04-13T01:32:14.417Z,10.17
2019-04-13T01:34:44.071Z,10.37
2019-04-13T01:37:32.634Z,10.87
2019-04-13T01:40:02.199Z,10.30
2019-04-13T01:42:31.531Z,10.50
2019-04-13T01:45:01.187Z,9.67
2019-04-13T01:47:30.875Z,10.97
2019-04-13T01:50:00.073Z,10.43
2019-04-13T01:52:29.246Z,10.37
2019-04-13T01:54:58.449Z,10.30
2019-04-13T01:57:27.749Z,10.07
2019-04-13T01:59:57.318Z,10.87
2019-04-13T02:02:44.175Z,10.80
2019-04-13T02:05:45.265Z,10.63
2019-04-13T02:08:33.835Z,10.83
2019-04-13T02:11:22.121Z,10.90
2019-04-13T02:13:51.686Z,10.73
2019-04-13T02:16:20.937Z,10.73
2019-04-13T02:18:50.483Z,11.50
2019-04-13T02:21:19.675Z,10.77
2019-04-13T02:23:48.856Z,10.97
2019-04-13T02:26:20.173Z,10.00
2019-04-13T02:28:49.073Z,10.87
2019-04-13T02:31:18.411Z,10.87
2019-04-13T02:33:47.646Z,10.80
2019-04-13T02:36:17.255Z,11.13
2019-04-13T02:38:46.501Z,11.10
2019-04-13T02:41:16.349Z,10.93
2019-04-13T02:43:45.665Z,10.87
2019-04-13T02:46:15.602Z,12.10
2019-04-13T02:48:44.915Z,11.47
2019-04-13T02:51:14.173Z,11.13
2019-04-13T02:53:43.493Z,12.13
2019-04-13T02:56:13.096Z,11.13
2019-04-13T02:58:42.400Z,12.20
2019-04-13T03:01:11.731Z,12.23
2019-04-13T03:03:41.009Z,11.67
2019-04-13T03:06:10.723Z,11.33
2019-04-13T03:08:39.964Z,12.00
2019-04-13T03:11:09.144Z,11.80
2019-04-13T03:13:38.481Z,12.53
2019-04-13T03:16:39.226Z,12.20
2019-04-13T03:19:13.168Z,13.03
2019-04-13T03:21:42.676Z,12.50
2019-04-13T03:24:11.861Z,11.87
2019-04-13T03:26:41.176Z,12.70
2019-04-13T03:29:11.187Z,12.87
2019-04-13T03:31:40.829Z,13.10
2019-04-13T03:34:10.514Z,13.10
2019-04-13T03:36:40.128Z,13.03
2019-04-13T03:39:09.728Z,12.60
2019-04-13T03:41:38.966Z,13.30
2019-04-13T03:44:08.143Z,14.10
2019-04-13T03:46:37.398Z,13.70
2019-04-13T03:49:06.932Z,13.70
2019-04-13T03:51:36.228Z,14.33
2019-04-13T03:54:05.499Z,13.67
2019-04-13T03:56:35.143Z,14.70
2019-04-13T03:59:04.741Z,13.60
2019-04-13T04:01:33.895Z,14.70
2019-04-13T04:04:03.544Z,14.67
2019-04-13T04:06:32.889Z,14.57
2019-04-13T04:09:02.533Z,14.70
2019-04-13T04:11:31.799Z,14.90
2019-04-13T04:14:01.053Z,14.93
2019-04-13T04:16:30.891Z,14.17
2019-04-13T04:19:00.329Z,15.10
2019-04-13T04:21:29.967Z,15.70
2019-04-13T04:23:59.522Z,14.57
2019-04-13T04:26:28.791Z,15.17
2019-04-13T04:28:58.303Z,15.60
2019-04-13T04:31:27.572Z,16.17
2019-04-13T04:33:57.221Z,15.93
2019-04-13T04:36:26.560Z,16.00
2019-04-13T04:38:55.885Z,16.73
2019-04-13T04:41:25.219Z,16.27
2019-04-13T04:43:54.539Z,17.87
2019-04-13T04:46:23.796Z,16.73
2019-04-13T04:48:53.349Z,17.07
2019-04-13T04:51:22.965Z,17.07
2019-04-13T04:53:52.477Z,16.00
2019-04-13T04:56:22.104Z,16.83
2019-04-13T04:58:51.423Z,17.23
2019-04-13T05:01:21.302Z,17.70
2019-04-13T05:03:50.624Z,17.63
2019-04-13T05:06:20.212Z,17.40
2019-04-13T05:08:49.552Z,18.03
2019-04-13T05:11:18.921Z,18.30
2019-04-13T05:13:48.158Z,18.17
2019-04-13T05:16:17.701Z,18.10
2019-04-13T05:18:47.341Z,17.97
2019-04-13T05:21:16.603Z,18.60
2019-04-13T05:23:45.973Z,17.83
2019-04-13T05:26:15.538Z,18.63
2019-04-13T05:28:44.881Z,18.33
2019-04-13T05:31:14.116Z,18.63
2019-04-13T05:33:43.655Z,18.80
2019-04-13T05:36:12.853Z,20.90
2019-04-13T05:38:42.076Z,19.47
2019-04-13T05:41:11.757Z,18.87
2019-04-13T05:43:41.449Z,17.77
2019-04-13T05:46:10.627Z,18.37
2019-04-13T05:48:40.352Z,17.97
2019-04-13T05:51:09.844Z,18.00
2019-04-13T05:53:39.475Z,18.90
2019-04-13T05:56:08.706Z,18.50
2019-04-13T05:58:37.884Z,17.77
2019-04-13T06:01:07.132Z,18.20
2019-04-13T06:03:36.889Z,18.33
2019-04-13T06:06:06.092Z,18.53
2019-04-13T06:08:36.086Z,17.43
2019-04-13T06:11:05.655Z,17.80
2019-04-13T06:13:35.052Z,18.30
2019-04-13T06:16:08.769Z,18.33
2019-04-13T06:18:36.298Z,18.43
2019-04-13T06:21:06.947Z,17.67
2019-04-13T06:23:36.882Z,18.60
2019-04-13T06:26:06.062Z,18.00
2019-04-13T06:28:35.238Z,18.63
2019-04-13T06:31:23.474Z,18.30
2019-04-13T06:33:59.188Z,20.10
2019-04-13T06:36:28.804Z,18.53
2019-04-13T06:38:59.642Z,18.80
2019-04-13T06:41:29.040Z,18.93
2019-04-13T06:44:01.282Z,18.10
2019-04-13T06:46:29.857Z,18.53
2019-04-13T06:48:59.355Z,18.63
2019-04-13T06:51:29.294Z,18.13
2019-04-13T06:53:58.884Z,18.80
2019-04-13T06:56:28.564Z,18.60
2019-04-13T06:58:58.392Z,18.77
2019-04-13T07:01:28.583Z,18.20
2019-04-13T07:03:57.833Z,18.80
2019-04-13T07:06:29.058Z,16.67
2019-04-13T07:09:16.273Z,18.73
2019-04-13T07:12:07.535Z,17.70
2019-04-13T07:14:36.944Z,17.00
2019-04-13T07:17:14.412Z,17.07
2019-04-13T07:19:44.158Z,15.73
2019-04-13T07:22:13.445Z,15.23
2019-04-13T07:24:43.339Z,16.00
2019-04-13T07:27:12.701Z,15.80
2019-04-13T07:29:41.964Z,15.00
2019-04-13T07:32:11.141Z,15.53
2019-04-13T07:34:40.489Z,14.83
2019-04-13T07:37:12.164Z,14.60
2019-04-13T07:39:40.645Z,13.67
2019-04-13T07:42:09.991Z,13.90
2019-04-13T07:45:01.283Z,13.80
2019-04-13T07:48:01.693Z,12.43
2019-04-13T07:50:50.393Z,13.50
2019-04-13T07:53:22.259Z,14.33
2019-04-13T07:55:52.162Z,13.40
2019-04-13T07:58:22.687Z,12.63
2019-04-13T08:00:52.307Z,12.07
2019-04-13T08:03:21.544Z,11.00
2019-04-13T08:05:50.933Z,10.97
2019-04-13T08:08:20.587Z,11.17
2019-04-13T08:10:49.873Z,10.27
2019-04-13T08:13:19.138Z,10.00
2019-04-13T08:15:48.675Z,10.80
2019-04-13T08:18:26.121Z,11.53
2019-04-13T08:20:55.577Z,10.77
2019-04-13T08:23:24.774Z,9.30
2019-04-13T08:25:54.526Z,8.90
2019-04-13T08:28:23.845Z,8.77
2019-04-13T08:30:53.237Z,9.27
2019-04-13T08:33:22.842Z,8.40
2019-04-13T08:35:52.433Z,9.83
2019-04-13T08:38:21.697Z,6.90
2019-04-13T08:40:50.869Z,7.63
2019-04-13T08:43:20.279Z,6.93
2019-04-13T08:46:08.828Z,6.93
2019-04-13T08:48:38.103Z,7.60
2019-04-13T08:51:07.403Z,5.60
2019-04-13T08:53:36.660Z,6.87
2019-04-13T08:56:05.901Z,7.00
2019-04-13T08:58:35.085Z,7.53
2019-04-13T09:01:04.821Z,7.00
2019-04-13T09:03:34.803Z,7.13
2019-04-13T09:06:04.328Z,8.13
2019-04-13T09:08:33.713Z,8.53
2019-04-13T09:11:04.344Z,8.33
2019-04-13T09:13:34.518Z,7.80
2019-04-13T09:16:04.739Z,8.30
2019-04-13T09:19:06.439Z,8.60
2019-04-13T09:21:47.650Z,8.17
2019-04-13T09:24:14.589Z,8.40
2019-04-13T09:26:43.863Z,8.93
2019-04-13T09:29:14.648Z,9.00
2019-04-13T09:31:44.529Z,8.87
2019-04-13T09:34:28.222Z,7.80
2019-04-13T09:36:44.741Z,8.47
2019-04-13T09:39:14.377Z,8.40
2019-04-13T09:41:46.714Z,8.33
2019-04-13T09:44:31.584Z,7.50
2019-04-13T09:47:06.284Z,7.70
2019-04-13T09:49:35.794Z,7.40
2019-04-13T09:52:05.044Z,7.17
2019-04-13T09:54:34.372Z,6.40
2019-04-13T09:57:03.714Z,6.27
2019-04-13T09:59:33.036Z,6.93
2019-04-13T10:02:02.301Z,6.93
2019-04-13T10:04:31.904Z,6.60
2019-04-13T10:07:01.800Z,6.67
2019-04-13T10:09:31.728Z,6.80
2019-04-13T10:12:12.916Z,6.43
2019-04-13T10:15:18.343Z,6.53
2019-04-13T10:17:54.311Z,7.07
2019-04-13T10:20:22.594Z,7.17
2019-04-13T10:22:53.515Z,7.17
2019-04-13T10:25:23.593Z,6.97
2019-04-13T10:27:52.820Z,7.07
2019-04-13T10:30:22.462Z,7.23
2019-04-13T10:32:52.078Z,7.27
2019-04-13T10:35:21.342Z,6.53
2019-04-13T10:37:50.623Z,6.83
2019-04-13T10:40:20.268Z,7.00
2019-04-13T10:42:49.514Z,7.03
2019-04-13T10:45:56.268Z,6.80
2019-04-13T10:48:34.467Z,6.00
2019-04-13T10:51:25.963Z,6.13
2019-04-13T10:53:55.292Z,5.93
2019-04-13T10:56:24.453Z,5.93
2019-04-13T10:58:55.144Z,5.70
2019-04-13T11:01:25.548Z,6.30
2019-04-13T11:03:54.907Z,6.80
2019-04-13T11:06:24.436Z,6.60
2019-04-13T11:08:53.929Z,6.63
2019-04-13T11:11:23.209Z,6.17
2019-04-13T11:13:52.513Z,6.10
2019-04-13T11:16:22.066Z,6.70
2019-04-13T11:18:51.410Z,6.60
2019-04-13T11:21:21.084Z,6.53
2019-04-13T11:23:50.573Z,6.60
2019-04-13T11:26:19.827Z,6.47
2019-04-13T11:28:49.360Z,6.27
2019-04-13T11:31:22.859Z,6.27
2019-04-13T11:33:51.054Z,5.60
2019-04-13T11:36:20.482Z,6.23
2019-04-13T11:38:49.732Z,5.70
2019-04-13T11:41:50.109Z,5.33
2019-04-13T11:44:54.045Z,6.27
2019-04-13T11:47:57.789Z,5.80
2019-04-13T11:50:33.373Z,5.30
2019-04-13T11:53:02.577Z,5.50
2019-04-13T11:55:34.224Z,5.63
2019-04-13T11:58:03.382Z,5.43
2019-04-13T12:00:51.656Z,5.57
2019-04-13T12:03:45.795Z,5.50
2019-04-13T12:06:26.402Z,4.93
2019-04-13T12:09:05.987Z,4.80
2019-04-13T12:12:00.107Z,4.80
2019-04-13T12:14:48.398Z,4.60
2019-04-13T12:17:35.778Z,4.43
2019-04-13T12:20:20.908Z,4.37
2019-04-13T12:22:50.202Z,4.43
2019-04-13T12:25:19.804Z,4.03
2019-04-13T12:27:49.308Z,4.17
2019-04-13T12:30:23.041Z,4.30
2019-04-13T12:32:52.280Z,4.80
2019-04-13T12:35:21.459Z,4.83
2019-04-13T12:37:51.010Z,4.93
2019-04-13T12:40:48.315Z,4.10
2019-04-13T12:43:19.136Z,4.17
2019-04-13T12:45:48.440Z,4.03
2019-04-13T12:48:18.794Z,4.47
2019-04-13T12:50:48.080Z,4.30
2019-04-13T12:53:17.345Z,4.50
2019-04-13T12:55:46.528Z,4.33
2019-04-13T12:58:15.800Z,4.60
2019-04-13T13:00:52.986Z,4.57
2019-04-13T13:03:24.795Z,4.50
2019-04-13T13:05:55.528Z,4.83
2019-04-13T13:08:25.640Z,4.50
2019-04-13T13:10:54.870Z,4.63
2019-04-13T13:13:24.376Z,4.27
2019-04-13T13:15:53.624Z,4.03
2019-04-13T13:18:26.116Z,4.10
2019-04-13T13:21:08.419Z,4.27
2019-04-13T13:23:37.651Z,4.37
2019-04-13T13:26:07.326Z,4.83
2019-04-13T13:28:36.500Z,4.10
2019-04-13T13:31:06.095Z,4.77
2019-04-13T13:33:37.806Z,4.60
2019-04-13T13:36:06.428Z,4.23
2019-04-13T13:38:38.855Z,4.60
2019-04-13T13:41:08.093Z,4.27
2019-04-13T13:43:37.284Z,4.40
2019-04-13T13:46:06.438Z,3.87
2019-04-13T13:48:35.967Z,4.07
2019-04-13T13:51:05.282Z,4.30
2019-04-13T13:53:34.910Z,4.70
2019-04-13T13:56:04.290Z,4.33
2019-04-13T13:58:41.382Z,4.20
2019-04-13T14:01:26.327Z,4.27
2019-04-13T14:03:55.648Z,4.43
2019-04-13T14:06:25.004Z,3.70
2019-04-13T14:08:54.197Z,4.70
2019-04-13T14:11:23.539Z,4.30
2019-04-13T14:13:52.871Z,4.60
2019-04-13T14:16:22.136Z,6.90
2019-04-13T14:18:51.622Z,4.80
2019-04-13T14:21:20.952Z,4.90
2019-04-13T14:23:50.547Z,15.13
2019-04-13T14:26:20.155Z,4.03
2019-04-13T14:28:49.663Z,4.57
2019-04-13T14:31:19.021Z,5.00
2019-04-13T14:33:48.577Z,6.00
2019-04-13T14:36:18.184Z,4.57
2019-04-13T14:38:47.789Z,4.70
2019-04-13T14:41:16.964Z,5.10
2019-04-13T14:43:48.118Z,4.77
2019-04-13T14:46:17.043Z,4.87
2019-04-13T14:48:46.456Z,4.57
2019-04-13T14:51:20.232Z,4.17
2019-04-13T14:53:47.154Z,4.63
2019-04-13T14:56:19.260Z,4.47
2019-04-13T14:58:48.537Z,4.03
2019-04-13T15:01:18.473Z,4.97
2019-04-13T15:03:47.812Z,4.73
2019-04-13T15:06:18.003Z,4.20
2019-04-13T15:08:48.319Z,4.37
2019-04-13T15:11:17.839Z,4.37
2019-04-13T15:13:47.232Z,4.33
2019-04-13T15:16:20.359Z,4.43
2019-04-13T15:18:56.643Z,3.97
2019-04-13T15:21:30.246Z,3.70
2019-04-13T15:23:57.916Z,3.63
2019-04-13T15:26:27.637Z,3.90
2019-04-13T15:28:58.111Z,3.90
2019-04-13T15:31:31.823Z,3.77
2019-04-13T15:34:00.556Z,3.50
2019-04-13T15:36:32.317Z,3.97
2019-04-13T15:39:04.380Z,4.30
2019-04-13T15:41:40.041Z,4.00
2019-04-13T15:44:06.461Z,4.30
2019-04-13T15:46:35.194Z,3.60
2019-04-13T15:49:04.712Z,3.80
2019-04-13T15:51:34.476Z,4.40
2019-04-13T15:54:05.322Z,3.70
2019-04-13T15:56:34.836Z,3.50
2019-04-13T15:59:04.103Z,3.70
2019-04-13T16:01:34.592Z,3.67
2019-04-13T16:04:05.361Z,3.40
2019-04-13T16:06:35.865Z,3.43
2019-04-13T16:09:25.436Z,3.43
2019-04-13T16:12:01.044Z,3.23
2019-04-13T16:14:26.918Z,3.50
2019-04-13T16:16:56.678Z,3.53
2019-04-13T16:19:27.695Z,3.70
2019-04-13T16:21:58.176Z,3.70
2019-04-13T16:24:28.678Z,4.23
2019-04-13T16:26:59.089Z,3.87
2019-04-13T16:30:02.760Z,4.23
2019-04-13T16:32:54.095Z,4.20
2019-04-13T16:35:40.948Z,4.40
2019-04-13T16:38:11.243Z,4.60
2019-04-13T16:40:41.524Z,4.07
2019-04-13T16:43:11.721Z,4.57
2019-04-13T16:45:54.945Z,4.00
2019-04-13T16:48:43.321Z,4.37
2019-04-13T16:51:47.819Z,4.40
2019-04-13T16:54:25.881Z,4.40
2019-04-13T16:57:13.195Z,4.40
2019-04-13T17:00:01.617Z,4.10
2019-04-13T17:02:56.816Z,4.33
2019-04-13T17:05:29.032Z,4.37
2019-04-13T17:07:59.122Z,4.20
2019-04-13T17:10:29.301Z,3.83
2019-04-13T17:12:58.970Z,4.43
2019-04-13T17:15:29.199Z,4.20
2019-04-13T17:17:59.394Z,4.37
2019-04-13T17:20:41.985Z,4.60
2019-04-13T17:23:48.273Z,4.63
2019-04-13T17:26:46.229Z,4.90
2019-04-13T17:29:42.093Z,5.13
2019-04-13T17:32:22.712Z,4.80
2019-04-13T17:34:55.408Z,4.73
2019-04-13T17:37:25.533Z,5.40
2019-04-13T17:39:55.139Z,4.80
2019-04-13T17:42:46.125Z,5.10
2019-04-13T17:45:37.618Z,4.80
2019-04-13T17:48:18.819Z,4.93
2019-04-13T17:51:08.023Z,4.40
2019-04-13T17:53:43.550Z,4.90
2019-04-13T17:56:24.038Z,4.57
2019-04-13T17:59:22.517Z,4.60
2019-04-13T18:02:09.597Z,4.27
2019-04-13T18:04:58.015Z,4.80
2019-04-13T18:07:46.421Z,4.43
2019-04-13T18:10:50.533Z,4.80
2019-04-13T18:13:55.911Z,4.60
2019-04-13T18:16:44.238Z,5.20
2019-04-13T18:19:23.417Z,5.10
2019-04-13T18:21:53.735Z,4.93
2019-04-13T18:24:24.217Z,5.00
2019-04-13T18:26:54.339Z,4.73
2019-04-13T18:29:23.989Z,5.20
2019-04-13T18:31:54.507Z,4.87
2019-04-13T18:34:26.697Z,5.13
2019-04-13T18:36:55.329Z,5.07
2019-04-13T18:39:25.602Z,5.30
2019-04-13T18:41:55.311Z,4.93
2019-04-13T18:44:25.717Z,5.20
2019-04-13T18:46:55.162Z,5.70
2019-04-13T18:49:24.433Z,6.00
2019-04-13T18:51:54.364Z,6.13
2019-04-13T18:54:23.786Z,5.67
2019-04-13T18:56:53.828Z,5.43
2019-04-13T18:59:23.690Z,5.67
2019-04-13T19:01:53.849Z,5.73
2019-04-13T19:04:23.706Z,5.80
2019-04-13T19:06:53.060Z,5.37
2019-04-13T19:09:22.624Z,5.90
2019-04-13T19:11:52.005Z,5.90
2019-04-13T19:14:21.734Z,5.17
2019-04-13T19:16:51.318Z,6.03
2019-04-13T19:19:20.783Z,6.40
2019-04-13T19:21:50.675Z,5.70
2019-04-13T19:24:20.238Z,5.77
2019-04-13T19:26:49.708Z,6.30
2019-04-13T19:29:20.027Z,6.50
2019-04-13T19:31:50.075Z,7.17
2019-04-13T19:34:21.535Z,6.60
2019-04-13T19:36:51.976Z,6.30
2019-04-13T19:39:21.354Z,7.10
2019-04-13T19:41:51.244Z,7.40
2019-04-13T19:44:20.591Z,7.00
2019-04-13T19:46:49.972Z,7.70
2019-04-13T19:49:19.423Z,6.93
2019-04-13T19:52:05.106Z,6.73
2019-04-13T19:54:34.564Z,6.93
2019-04-13T19:57:04.049Z,7.10
2019-04-13T19:59:34.136Z,6.40
2019-04-13T20:02:03.651Z,6.80
2019-04-13T20:04:33.457Z,7.37
2019-04-13T20:07:02.928Z,8.03
2019-04-13T20:09:32.352Z,7.60
2019-04-13T20:12:01.777Z,7.87
2019-04-13T20:14:32.931Z,7.13
2019-04-13T20:17:02.602Z,6.63
2019-04-13T20:19:32.650Z,6.47
2019-04-13T20:22:02.780Z,6.67
2019-04-13T20:24:34.093Z,6.67
2019-04-13T20:27:04.444Z,7.13
2019-04-13T20:29:33.942Z,6.63
2019-04-13T20:32:03.841Z,6.80
2019-04-13T20:34:33.830Z,7.20
2019-04-13T20:37:03.496Z,7.23
2019-04-13T20:39:35.191Z,7.43
2019-04-13T20:42:11.029Z,7.13
2019-04-13T20:44:36.668Z,7.90
2019-04-13T20:47:06.898Z,8.10
2019-04-13T20:49:36.836Z,8.70
2019-04-13T20:52:07.151Z,8.50
2019-04-13T20:54:36.387Z,8.43
2019-04-13T20:57:06.419Z,8.47
2019-04-13T20:59:36.750Z,9.20
2019-04-13T21:02:07.039Z,8.57
2019-04-13T21:04:37.030Z,8.47
2019-04-13T21:07:07.400Z,8.60
2019-04-13T21:09:36.825Z,8.67
2019-04-13T21:12:06.026Z,8.63
2019-04-13T21:14:40.243Z,8.73
2019-04-13T21:17:11.309Z,9.00
2019-04-13T21:19:41.462Z,8.70
2019-04-13T21:22:11.607Z,8.13
2019-04-13T21:24:41.662Z,9.03
2019-04-13T21:27:11.731Z,9.00
2019-04-13T21:29:41.531Z,9.00
2019-04-13T21:32:11.806Z,9.23
2019-04-13T21:34:41.837Z,9.37
2019-04-13T21:37:12.243Z,9.00
2019-04-13T21:39:41.861Z,9.60
2019-04-13T21:42:11.340Z,10.40
2019-04-13T21:44:44.416Z,10.77
2019-04-13T21:47:11.983Z,10.93
2019-04-13T21:49:42.505Z,11.40
2019-04-13T21:52:21.573Z,11.23
2019-04-13T21:54:51.823Z,10.17
2019-04-13T21:57:21.935Z,10.70
2019-04-13T21:59:51.997Z,9.90
2019-04-13T22:02:24.664Z,10.40
2019-04-13T22:04:54.684Z,10.43
2019-04-13T22:07:24.515Z,10.27
2019-04-13T22:09:54.385Z,10.17
2019-04-13T22:12:24.371Z,9.47
2019-04-13T22:15:01.450Z,10.27
2019-04-13T22:17:25.074Z,10.10
2019-04-13T22:19:55.085Z,10.50
2019-04-13T22:22:25.017Z,9.90
2019-04-13T22:24:54.918Z,9.50
2019-04-13T22:27:27.027Z,10.80
2019-04-13T22:29:57.453Z,9.93
2019-04-13T22:32:32.366Z,10.13
2019-04-13T22:35:10.638Z,10.13
2019-04-13T22:37:40.780Z,9.10
2019-04-13T22:40:10.502Z,9.40
2019-04-13T22:42:40.458Z,10.07
2019-04-13T22:45:13.435Z,10.40
2019-04-13T22:47:42.968Z,10.03
2019-04-13T22:50:35.094Z,10.57
2019-04-13T22:53:12.794Z,10.33
2019-04-13T22:56:00.462Z,10.73
2019-04-13T22:58:31.016Z,10.80
2019-04-13T23:01:03.590Z,10.50
2019-04-13T23:03:33.245Z,10.80
2019-04-13T23:06:03.188Z,11.50
2019-04-13T23:08:33.491Z,10.30
2019-04-13T23:11:03.922Z,10.87
2019-04-13T23:13:34.279Z,10.90
2019-04-13T23:16:04.173Z,10.37
2019-04-13T23:18:34.131Z,10.53
2019-04-13T23:21:04.947Z,10.97
2019-04-13T23:23:35.484Z,11.50
2019-04-13T23:26:05.893Z,10.63
2019-04-13T23:28:35.682Z,10.50
2019-04-13T23:31:04.973Z,11.13
2019-04-13T23:33:34.546Z,11.63
2019-04-13T23:36:04.928Z,11.70
2019-04-13T23:38:35.347Z,13.50
2019-04-13T23:41:05.999Z,13.87
2019-04-13T23:43:36.509Z,13.77
2019-04-13T23:46:06.852Z,16.37
2019-04-13T23:48:37.167Z,20.47
2019-04-13T23:51:07.771Z,15.33
2019-04-13T23:53:37.971Z,13.40
2019-04-13T23:56:17.379Z,13.63
2019-04-13T23:59:00.137Z,12.37
